Lamoure, North Dakota
Current Conditions -  °F | °C
As of 12:35 AM on Thursday 27 Nov 2014 (Local Time) from KGWR Reporting Station
Clear Clear  
Wind Chill: -18°   Ceiling: Unl
Heat Index: -6°   Visibility: 10mi
Dew Point: -13°   Wind: 6mph
Humidity: 71%   Direction: 350°N
Pressure: 30.53"   Gusts: NA
Location:  46.36°N, 98.29°W
Report Text: KGWR 270635Z AUTO 35005KT 10SM CLR M21/M25 A3053 RMK A01 P000
Loading
Personal Weather Stations






























Interactive Weather Map New forecast layout! Learn more

10-Day Weather Forecast

Advertisements
Track Severe Weather on mobile